Matlacha Isles, Florida
Current Conditions -  °F | °C
As of 6:53 AM on Wednesday 28 Jan 2015 (Local Time) from KFMY Reporting Station
Clear Clear  
Wind Chill: 48°   Ceiling: Unl
Heat Index: 48°   Visibility: 10mi
Dew Point: 46°   Wind: 3mph
Humidity: 93%   Direction: 10°N
Pressure: 30.14"   Gusts: NA
Location:  26.63°N, 82.015°W
Report Text: KFMY 281153Z 01003KT 10SM CLR 09/08 A3014 RMK AO2 SLP208 T00890078 10156 20089 53020
Loading
Personal Weather Stations






























Interactive Weather Map New forecast layout! Learn more

10-Day Weather Forecast

Advertisements
Track Severe Weather on mobile